Time;durP1;ratioP1;P1;durP2;ratioP2;P2;SDS_P1;SDS_P2;PMS_P1;PMS_P2;Temp;Humidity;BMP_temperature;BMP_pressure;BME280_temperature;BME280_humidity;BME280_pressure;Samples;Min_cycle;Max_cycle;Signal;HPM_P1;HPM_P2
2024/04/13 00:01:09;;;;;;;;;;;17.30;34.60;19.00;99752.00;;;;5594775;25;2160;-41
2024/04/13 00:03:36;;;;;;;;;;;17.30;34.50;19.00;99752.00;;;;5595789;25;3034;-40
2024/04/13 00:06:07;;;;;;;;;;;17.30;34.30;19.00;99748.00;;;;5592405;25;1995;-40
2024/04/13 00:08:35;;;;;;;;;;;17.30;34.20;18.90;99749.00;;;;5595230;25;2136;-40
2024/04/13 00:11:08;;;;;;;;;;;17.30;34.80;18.90;99749.00;;;;5594446;25;2174;-41
2024/04/13 00:13:36;;;;;;;;;;;17.30;35.20;18.80;99745.00;;;;5594618;25;2182;-39
2024/04/13 00:16:06;;;;;;;;;;;17.20;35.60;18.90;99742.00;;;;5595191;25;2198;-41
2024/04/13 00:18:34;;;;;;;;;;;17.20;35.20;18.90;99748.00;;;;5594311;25;2221;-40
2024/04/13 00:21:04;;;;;;;;;;;17.20;35.00;18.90;99752.00;;;;5595077;25;2156;-41
2024/04/13 00:23:31;;;;;;;;;;;17.30;34.90;18.90;99752.00;;;;5595300;25;2302;-41
2024/04/13 00:26:01;;;;;;;;;;;17.30;34.80;18.90;99749.00;;;;5591556;25;2134;-40
2024/04/13 00:28:33;;;;;;;;;;;17.30;34.60;19.00;99754.00;;;;5592976;25;2175;-40
2024/04/13 00:31:04;;;;;;;;;;;17.30;34.50;18.90;99750.00;;;;5587946;25;2013;-40
2024/04/13 00:33:38;;;;;;;;;;;17.30;34.40;19.00;99751.00;;;;5588205;25;1993;-41
2024/04/13 00:36:09;;;;;;;;;;;17.30;34.30;18.90;99749.00;;;;5590656;25;2015;-39
2024/04/13 00:38:36;;;;;;;;;;;17.30;34.40;18.90;99751.00;;;;5592950;25;2056;-42
2024/04/13 00:41:07;;;;;;;;;;;17.20;34.70;18.90;99745.00;;;;5586350;25;2382;-40
2024/04/13 00:43:40;;;;;;;;;;;17.20;35.10;18.90;99744.00;;;;5595058;25;2209;-42
2024/04/13 00:46:07;;;;;;;;;;;17.20;34.90;18.90;99754.00;;;;5592869;25;2176;-39
2024/04/13 00:48:39;;;;;;;;;;;17.20;34.60;18.90;99753.00;;;;5589677;25;2186;-40
2024/04/13 00:51:06;;;;;;;;;;;17.20;34.60;18.90;99748.00;;;;5593487;25;1988;-39
2024/04/13 00:53:36;;;;;;;;;;;17.20;34.50;18.90;99749.00;;;;5585116;25;2024;-40
2024/04/13 00:56:06;;;;;;;;;;;17.30;34.50;18.90;99750.00;;;;5594152;25;2652;-41
2024/04/13 00:58:36;;;;;;;;;;;17.20;34.40;18.90;99752.00;;;;5592918;25;2581;-40
2024/04/13 01:01:08;;;;;;;;;;;17.30;34.20;18.90;99738.00;;;;5592515;25;1963;-40
2024/04/13 01:03:38;;;;;;;;;;;17.30;34.20;18.90;99740.00;;;;5594502;25;2186;-41
2024/04/13 01:06:08;;;;;;;;;;;17.30;34.20;18.90;99743.00;;;;5593897;25;2143;-40
2024/04/13 01:08:38;;;;;;;;;;;17.20;34.60;18.90;99745.00;;;;5594169;25;2198;-40
2024/04/13 01:11:06;;;;;;;;;;;17.20;35.00;18.80;99761.00;;;;5593135;25;1943;-41
2024/04/13 01:13:37;;;;;;;;;;;17.10;35.30;18.80;99764.00;;;;5594652;25;2134;-41
2024/04/13 01:16:07;;;;;;;;;;;17.10;35.60;18.70;99766.00;;;;5593404;25;2294;-40
2024/04/13 01:18:39;;;;;;;;;;;17.00;35.80;18.70;99746.00;;;;5593921;25;2023;-39
2024/04/13 01:21:09;;;;;;;;;;;17.10;35.80;18.80;99760.00;;;;5593402;25;2180;-40
2024/04/13 01:23:41;;;;;;;;;;;17.10;35.40;18.70;99759.00;;;;5585978;25;2363;-41
2024/04/13 01:26:11;;;;;;;;;;;17.10;35.30;18.80;99754.00;;;;5593377;25;2309;-40
2024/04/13 01:28:41;;;;;;;;;;;17.10;35.10;18.80;99749.00;;;;5589086;25;3254;-40
2024/04/13 01:31:09;;;;;;;;;;;17.10;34.90;18.80;99751.00;;;;5594371;25;1489;-40
2024/04/13 01:33:39;;;;;;;;;;;17.20;34.80;18.80;99759.00;;;;5592434;25;2327;-41
2024/04/13 01:36:07;;;;;;;;;;;17.20;34.60;18.80;99757.00;;;;5588854;25;2614;-42
2024/04/13 01:38:36;;;;;;;;;;;17.20;34.40;18.90;99756.00;;;;5592596;25;2232;-41
2024/04/13 01:41:04;;;;;;;;;;;17.20;34.40;18.80;99760.00;;;;5594153;25;2193;-40
2024/04/13 01:43:37;;;;;;;;;;;17.20;34.70;18.80;99764.00;;;;5591854;25;2476;-41
2024/04/13 01:46:05;;;;;;;;;;;17.20;35.20;18.80;99754.00;;;;5592936;25;2178;-40
2024/04/13 01:48:35;;;;;;;;;;;17.10;35.30;18.80;99760.00;;;;5591824;25;2170;-39
2024/04/13 01:51:04;;;;;;;;;;;17.10;35.00;18.80;99766.00;;;;5592889;25;2307;-40
2024/04/13 01:53:34;;;;;;;;;;;17.10;34.80;18.80;99761.00;;;;5593113;25;2404;-42
2024/04/13 01:56:01;;;;;;;;;;;17.10;34.60;18.80;99769.00;;;;5593436;25;2143;-40
2024/04/13 01:58:31;;;;;;;;;;;17.10;34.60;18.80;99759.00;;;;5592569;25;1489;-40
2024/04/13 02:01:06;;;;;;;;;;;17.20;34.50;18.80;99767.00;;;;5594206;25;2334;-42
2024/04/13 02:03:37;;;;;;;;;;;17.20;34.40;18.80;99762.00;;;;5592666;25;2170;-42
2024/04/13 02:06:05;;;;;;;;;;;17.20;34.30;18.80;99765.00;;;;5592040;25;2328;-40
2024/04/13 02:08:35;;;;;;;;;;;17.20;34.10;18.80;99761.00;;;;5585897;25;2342;-41
2024/04/13 02:11:04;;;;;;;;;;;17.20;34.70;18.70;99763.00;;;;5594029;25;2471;-40
2024/04/13 02:13:34;;;;;;;;;;;17.10;35.00;18.70;99755.00;;;;5594596;25;2266;-40
2024/04/13 02:16:01;;;;;;;;;;;17.00;35.40;18.70;99752.00;;;;5596224;25;2183;-41
2024/04/13 02:18:34;;;;;;;;;;;17.00;35.10;18.80;99755.00;;;;5593932;25;2168;-40
2024/04/13 02:21:02;;;;;;;;;;;17.10;35.00;18.80;99758.00;;;;5597196;25;2376;-40
2024/04/13 02:23:32;;;;;;;;;;;17.10;34.80;18.80;99760.00;;;;5596016;25;2208;-41
2024/04/13 02:26:00;;;;;;;;;;;17.10;34.60;18.80;99762.00;;;;5596127;25;2895;-42
2024/04/13 02:28:30;;;;;;;;;;;17.10;34.50;18.80;99755.00;;;;5589235;25;2169;-42
2024/04/13 02:30:57;;;;;;;;;;;17.20;34.40;18.80;99748.00;;;;5596222;25;2223;-40
2024/04/13 02:33:27;;;;;;;;;;;17.20;34.30;18.80;99754.00;;;;5595711;25;2231;-42
2024/04/13 02:36:00;;;;;;;;;;;17.20;34.20;18.80;99742.00;;;;5593565;25;2363;-40
2024/04/13 02:38:31;;;;;;;;;;;17.20;34.30;18.80;99745.00;;;;5594586;25;2299;-41
2024/04/13 02:40:59;;;;;;;;;;;17.10;34.70;18.70;99747.00;;;;5596917;25;2170;-39
2024/04/13 02:43:30;;;;;;;;;;;17.10;35.00;18.70;99744.00;;;;5595523;25;2282;-39
2024/04/13 02:46:03;;;;;;;;;;;17.00;34.90;18.80;99757.00;;;;5593927;25;2214;-41
2024/04/13 02:48:34;;;;;;;;;;;17.10;34.70;18.70;99751.00;;;;5595583;25;2171;-41
2024/04/13 02:51:05;;;;;;;;;;;17.10;34.60;18.70;99745.00;;;;5597249;25;2219;-41
2024/04/13 02:53:35;;;;;;;;;;;17.10;34.50;18.70;99740.00;;;;5596043;25;2003;-40
2024/04/13 02:56:03;;;;;;;;;;;17.10;34.30;18.80;99742.00;;;;5596652;25;2221;-41
2024/04/13 02:58:33;;;;;;;;;;;17.10;34.20;18.80;99733.00;;;;5595202;25;2280;-40
2024/04/13 03:01:01;;;;;;;;;;;17.10;34.10;18.80;99730.00;;;;5597016;25;2223;-40
2024/04/13 03:03:31;;;;;;;;;;;17.10;34.00;18.70;99731.00;;;;5596139;25;2424;-39
2024/04/13 03:05:59;;;;;;;;;;;17.10;34.20;18.70;99732.00;;;;5584642;25;2253;-41
2024/04/13 03:08:32;;;;;;;;;;;17.10;34.80;18.60;99736.00;;;;5579358;25;2205;-42
2024/04/13 03:11:00;;;;;;;;;;;17.00;35.20;18.60;99731.00;;;;5585328;25;2410;-40
2024/04/13 03:13:31;;;;;;;;;;;17.00;35.50;18.50;99736.00;;;;5585400;25;1981;-40
2024/04/13 03:15:58;;;;;;;;;;;16.90;35.70;18.50;99735.00;;;;5584467;25;2260;-41
2024/04/13 03:18:28;;;;;;;;;;;16.90;36.00;18.50;99735.00;;;;5584084;25;2076;-41
2024/04/13 03:20:56;;;;;;;;;;;16.90;36.00;18.60;99748.00;;;;5583791;25;2177;-40
2024/04/13 03:23:26;;;;;;;;;;;16.90;35.60;18.60;99732.00;;;;5586577;25;2300;-42
2024/04/13 03:25:56;;;;;;;;;;;16.90;35.40;18.60;99738.00;;;;5582945;25;1505;-40
2024/04/13 03:28:28;;;;;;;;;;;17.00;35.20;18.60;99737.00;;;;5585348;25;3396;-39
2024/04/13 03:30:55;;;;;;;;;;;17.00;35.00;18.60;99739.00;;;;5584563;25;1966;-40
2024/04/13 03:33:25;;;;;;;;;;;17.00;34.90;18.70;99739.00;;;;5582689;25;2273;-40
2024/04/13 03:35:52;;;;;;;;;;;17.00;34.70;18.70;99733.00;;;;5583077;25;2328;-39
2024/04/13 03:38:22;;;;;;;;;;;17.10;34.60;18.70;99735.00;;;;5586529;25;2355;-43
2024/04/13 03:41:05;;;;;;;;;;;17.10;34.50;18.60;99736.00;;;;5583814;25;2229;-39
2024/04/13 03:43:36;;;;;;;;;;;17.00;34.80;18.60;99735.00;;;;5586416;25;2136;-40
2024/04/13 03:46:03;;;;;;;;;;;17.00;35.10;18.60;99730.00;;;;5586979;25;2219;-41
2024/04/13 03:48:33;;;;;;;;;;;16.90;35.30;18.60;99732.00;;;;5587215;25;2230;-41
2024/04/13 03:51:01;;;;;;;;;;;17.00;35.00;18.60;99739.00;;;;5589354;25;2318;-42
2024/04/13 03:53:31;;;;;;;;;;;17.00;34.90;18.60;99738.00;;;;5588110;25;1476;-40
2024/04/13 03:56:02;;;;;;;;;;;17.00;34.70;18.60;99743.00;;;;5588682;25;2357;-40
2024/04/13 03:58:32;;;;;;;;;;;17.00;34.60;18.60;99736.00;;;;5587335;25;2319;-39
2024/04/13 04:01:01;;;;;;;;;;;17.00;34.50;18.70;99733.00;;;;5586606;25;2021;-42
2024/04/13 04:03:31;;;;;;;;;;;17.00;34.30;18.70;99732.00;;;;5588681;25;2425;-41
2024/04/13 04:05:58;;;;;;;;;;;17.00;34.20;18.60;99731.00;;;;5589190;25;2448;-39
2024/04/13 04:08:28;;;;;;;;;;;17.10;34.20;18.60;99734.00;;;;5587102;25;2377;-39
2024/04/13 04:10:56;;;;;;;;;;;17.00;34.60;18.60;99742.00;;;;5586002;25;2186;-41
2024/04/13 04:13:29;;;;;;;;;;;17.00;35.10;18.50;99738.00;;;;5582078;25;1979;-43
2024/04/13 04:15:56;;;;;;;;;;;16.90;35.40;18.50;99731.00;;;;5585934;25;2167;-41
2024/04/13 04:18:26;;;;;;;;;;;16.90;35.20;18.60;99730.00;;;;5587246;25;2260;-41
2024/04/13 04:20:54;;;;;;;;;;;16.90;34.90;18.60;99714.00;;;;5584662;25;2302;-40
2024/04/13 04:23:24;;;;;;;;;;;17.00;34.80;18.60;99709.00;;;;5587712;25;3077;-41
2024/04/13 04:25:51;;;;;;;;;;;17.00;34.60;18.60;99719.00;;;;5586201;25;1958;-40
2024/04/13 04:28:21;;;;;;;;;;;17.00;34.50;18.60;99724.00;;;;5584999;25;2174;-41
2024/04/13 04:30:51;;;;;;;;;;;17.00;34.40;18.60;99719.00;;;;5586207;25;2342;-41
2024/04/13 04:33:22;;;;;;;;;;;17.00;34.30;18.70;99720.00;;;;5589563;25;2057;-43
2024/04/13 04:35:51;;;;;;;;;;;17.00;34.20;18.60;99723.00;;;;5584567;25;2129;-42
2024/04/13 04:38:21;;;;;;;;;;;17.00;34.30;18.60;99723.00;;;;5588643;25;2253;-41
2024/04/13 04:40:48;;;;;;;;;;;17.00;34.70;18.60;99715.00;;;;5586411;25;2273;-40
2024/04/13 04:43:18;;;;;;;;;;;16.90;34.90;18.60;99710.00;;;;5589419;25;2343;-41
2024/04/13 04:45:45;;;;;;;;;;;16.90;34.80;18.60;99716.00;;;;5586813;25;2184;-43
2024/04/13 04:48:18;;;;;;;;;;;16.90;34.70;18.60;99720.00;;;;5588675;25;2207;-41
2024/04/13 04:50:56;;;;;;;;;;;16.90;34.60;18.60;99718.00;;;;5586823;25;1467;-42
2024/04/13 04:53:26;;;;;;;;;;;17.00;34.50;18.60;99726.00;;;;5589793;25;2409;-39
2024/04/13 04:55:54;;;;;;;;;;;17.00;34.30;18.60;99721.00;;;;5585332;25;2245;-40
2024/04/13 04:58:24;;;;;;;;;;;17.00;34.20;18.60;99721.00;;;;5587955;25;2282;-41
2024/04/13 05:00:51;;;;;;;;;;;17.00;34.10;18.70;99725.00;;;;5586957;25;1444;-40
2024/04/13 05:03:24;;;;;;;;;;;17.00;34.00;18.60;99720.00;;;;5590000;25;2419;-42
2024/04/13 05:05:52;;;;;;;;;;;17.00;34.00;18.60;99723.00;;;;5587547;25;2272;-40
2024/04/13 05:08:22;;;;;;;;;;;17.00;34.60;18.50;99734.00;;;;5587693;25;2205;-43
2024/04/13 05:10:49;;;;;;;;;;;16.90;34.70;18.50;99735.00;;;;5575852;25;2271;-39
2024/04/13 05:13:20;;;;;;;;;;;16.90;35.10;18.40;99735.00;;;;5591845;25;2299;-40
2024/04/13 05:15:48;;;;;;;;;;;16.80;35.30;18.40;99726.00;;;;5591754;25;2241;-39
2024/04/13 05:18:18;;;;;;;;;;;16.80;35.60;18.40;99724.00;;;;5587519;25;2141;-41
2024/04/13 05:20:48;;;;;;;;;;;16.80;35.70;18.40;99738.00;;;;5586966;25;2355;-43
2024/04/13 05:23:19;;;;;;;;;;;16.80;35.30;18.50;99732.00;;;;5593583;25;2334;-40
2024/04/13 05:25:46;;;;;;;;;;;16.80;35.10;18.40;99722.00;;;;5585055;25;2377;-40
2024/04/13 05:28:16;;;;;;;;;;;16.80;34.90;18.50;99723.00;;;;5588800;25;2183;-43
2024/04/13 05:30:55;;;;;;;;;;;16.90;34.70;18.50;99716.00;;;;5587578;25;2332;-41
2024/04/13 05:33:26;;;;;;;;;;;16.90;34.60;18.60;99732.00;;;;5582793;25;2186;-40
2024/04/13 05:35:56;;;;;;;;;;;16.90;34.40;18.60;99732.00;;;;5582664;25;2196;-40
2024/04/13 05:38:29;;;;;;;;;;;17.00;34.40;18.60;99734.00;;;;5589100;25;2219;-41
2024/04/13 05:40:57;;;;;;;;;;;17.00;34.20;18.60;99731.00;;;;5578931;25;1483;-42
2024/04/13 05:43:27;;;;;;;;;;;17.00;34.70;18.50;99730.00;;;;5590833;25;2283;-41
2024/04/13 05:45:54;;;;;;;;;;;16.90;34.90;18.50;99736.00;;;;5591743;25;2194;-41
2024/04/13 05:48:24;;;;;;;;;;;16.90;35.20;18.60;99724.00;;;;5594771;25;1970;-44
2024/04/13 05:50:52;;;;;;;;;;;16.90;34.80;18.60;99723.00;;;;5588237;25;2328;-40
2024/04/13 05:53:31;;;;;;;;;;;17.00;34.60;18.60;99739.00;;;;5594708;25;2195;-43
2024/04/13 05:56:04;;;;;;;;;;;17.10;34.60;18.70;99723.00;;;;5591591;25;2228;-41
2024/04/13 05:58:33;;;;;;;;;;;17.10;34.40;18.70;99733.00;;;;5589946;25;1932;-41
2024/04/13 06:01:01;;;;;;;;;;;17.10;34.20;18.70;99732.00;;;;5591545;25;2224;-40
2024/04/13 06:03:33;;;;;;;;;;;17.10;34.20;18.70;99737.00;;;;5594827;25;2289;-40
2024/04/13 06:06:01;;;;;;;;;;;17.20;34.10;18.80;99750.00;;;;5592369;25;2165;-41
2024/04/13 06:08:33;;;;;;;;;;;17.20;34.00;18.80;99749.00;;;;5592926;25;2361;-41
2024/04/13 06:11:02;;;;;;;;;;;17.20;34.60;18.80;99748.00;;;;5574347;25;2298;-41
2024/04/13 06:13:31;;;;;;;;;;;17.20;35.20;18.80;99750.00;;;;5595809;25;2192;-40
2024/04/13 06:16:01;;;;;;;;;;;17.20;35.70;18.90;99746.00;;;;5592768;25;2186;-40
2024/04/13 06:18:31;;;;;;;;;;;17.20;35.00;18.90;99745.00;;;;5594155;25;2329;-41
2024/04/13 06:21:00;;;;;;;;;;;17.30;34.80;18.90;99756.00;;;;5585976;25;2077;-39
2024/04/13 06:23:32;;;;;;;;;;;17.30;34.60;19.00;99752.00;;;;5592317;25;2248;-40
2024/04/13 06:26:00;;;;;;;;;;;17.40;34.40;19.00;99759.00;;;;5591714;25;2474;-41
2024/04/13 06:28:30;;;;;;;;;;;17.40;34.30;19.00;99757.00;;;;5594453;25;2333;-42
2024/04/13 06:30:57;;;;;;;;;;;17.50;34.20;19.10;99752.00;;;;5589572;25;2407;-42
2024/04/13 06:33:27;;;;;;;;;;;17.50;34.00;19.10;99769.00;;;;5593770;25;1965;-40
2024/04/13 06:35:55;;;;;;;;;;;17.60;34.00;19.30;99772.00;;;;5591354;25;1524;-40
2024/04/13 06:38:26;;;;;;;;;;;17.60;34.00;19.30;99768.00;;;;5588124;25;2223;-43
2024/04/13 06:40:56;;;;;;;;;;;17.60;34.70;19.40;99749.00;;;;5590556;25;2283;-40
2024/04/13 06:43:26;;;;;;;;;;;17.70;35.80;19.30;99769.00;;;;5583839;25;2203;-42
2024/04/13 06:45:54;;;;;;;;;;;17.70;34.50;19.30;99776.00;;;;5590087;25;2276;-39
2024/04/13 06:48:23;;;;;;;;;;;17.70;34.30;19.40;99765.00;;;;5594632;25;2250;-44
2024/04/13 06:50:51;;;;;;;;;;;17.70;34.10;19.40;99769.00;;;;5592665;25;2032;-42
2024/04/13 06:53:23;;;;;;;;;;;17.80;34.10;19.40;99772.00;;;;5592638;25;2196;-41
2024/04/13 06:55:50;;;;;;;;;;;17.80;34.00;19.50;99765.00;;;;5592294;25;2307;-40
2024/04/13 06:58:23;;;;;;;;;;;17.90;33.90;19.60;99759.00;;;;5592053;25;2331;-40
2024/04/13 07:00:55;;;;;;;;;;;17.90;33.80;19.60;99770.00;;;;5593440;25;3067;-42
2024/04/13 07:03:25;;;;;;;;;;;18.00;33.80;19.60;99770.00;;;;5595123;25;2131;-41
2024/04/13 07:05:55;;;;;;;;;;;18.00;34.10;19.70;99773.00;;;;5594601;25;2240;-41
2024/04/13 07:08:24;;;;;;;;;;;18.00;34.90;19.70;99775.00;;;;5592861;25;2218;-42
2024/04/13 07:10:55;;;;;;;;;;;18.00;35.10;19.70;99746.00;;;;5593208;25;2334;-40
2024/04/13 07:13:25;;;;;;;;;;;18.00;35.30;19.70;99764.00;;;;5585692;25;1790;-42
2024/04/13 07:15:55;;;;;;;;;;;18.00;35.40;19.70;99768.00;;;;5591526;25;2166;-40
2024/04/13 07:18:22;;;;;;;;;;;18.00;35.60;19.70;99765.00;;;;5587237;25;2048;-41
2024/04/13 07:20:52;;;;;;;;;;;18.00;35.30;19.70;99771.00;;;;5589146;25;2235;-40
2024/04/13 07:23:19;;;;;;;;;;;18.10;34.80;19.70;99767.00;;;;5589547;25;2290;-41
2024/04/13 07:25:49;;;;;;;;;;;18.00;34.60;19.70;99765.00;;;;5590285;25;2269;-41
2024/04/13 07:28:16;;;;;;;;;;;18.10;34.50;19.70;99772.00;;;;5594778;25;2262;-41
2024/04/13 07:30:49;;;;;;;;;;;18.10;34.40;19.70;99766.00;;;;5592496;25;2233;-41
2024/04/13 07:33:17;;;;;;;;;;;18.10;34.20;19.70;99767.00;;;;5589544;25;2265;-39
2024/04/13 07:35:48;;;;;;;;;;;18.20;34.20;19.80;99773.00;;;;5594160;25;2179;-41
2024/04/13 07:38:15;;;;;;;;;;;18.20;34.10;19.80;99760.00;;;;5583243;25;2206;-42
2024/04/13 07:40:45;;;;;;;;;;;18.20;34.00;19.90;99760.00;;;;5591373;25;2202;-39
2024/04/13 07:43:12;;;;;;;;;;;18.20;34.70;19.90;99751.00;;;;5588625;25;2179;-41
2024/04/13 07:45:44;;;;;;;;;;;18.20;35.10;19.90;99752.00;;;;5584807;25;1840;-41
2024/04/13 07:48:15;;;;;;;;;;;18.20;35.40;19.90;99765.00;;;;5587440;25;1957;-41
2024/04/13 07:50:45;;;;;;;;;;;18.20;34.60;19.90;99765.00;;;;5592407;25;2322;-40
2024/04/13 07:53:15;;;;;;;;;;;18.20;34.50;19.80;99759.00;;;;5587516;25;2390;-41
2024/04/13 07:55:42;;;;;;;;;;;18.20;34.40;19.90;99753.00;;;;5584692;25;2206;-39
2024/04/13 07:58:12;;;;;;;;;;;18.20;34.20;19.90;99765.00;;;;5581586;25;2074;-40
2024/04/13 08:00:39;;;;;;;;;;;18.30;34.20;19.90;99757.00;;;;5584288;25;2225;-38
2024/04/13 08:03:10;;;;;;;;;;;18.30;34.00;19.90;99749.00;;;;5577307;25;1957;-40
2024/04/13 08:05:40;;;;;;;;;;;18.30;34.00;19.90;99751.00;;;;5579267;25;1962;-39
2024/04/13 08:08:10;;;;;;;;;;;18.30;33.90;20.00;99749.00;;;;5581855;25;2421;-40
2024/04/13 08:10:37;;;;;;;;;;;18.30;34.70;20.00;99752.00;;;;5577992;25;2199;-43
2024/04/13 08:13:08;;;;;;;;;;;18.30;35.00;20.00;99753.00;;;;5582263;25;2324;-41
2024/04/13 08:15:37;;;;;;;;;;;18.30;35.30;20.00;99749.00;;;;5577962;25;2477;-39
2024/04/13 08:18:07;;;;;;;;;;;18.30;34.70;19.90;99742.00;;;;5590505;25;2320;-40
2024/04/13 08:20:34;;;;;;;;;;;18.30;34.50;19.90;99740.00;;;;5585365;25;2179;-40
2024/04/13 08:23:08;;;;;;;;;;;18.30;34.40;19.90;99738.00;;;;5591773;25;2228;-40
2024/04/13 08:25:35;;;;;;;;;;;18.30;34.30;19.90;99735.00;;;;5585000;25;2217;-40
2024/04/13 08:28:05;;;;;;;;;;;18.30;34.20;20.00;99736.00;;;;5583672;25;2363;-40
2024/04/13 08:30:37;;;;;;;;;;;18.40;34.20;20.00;99728.00;;;;5579936;25;2176;-40
2024/04/13 08:33:07;;;;;;;;;;;18.40;34.00;20.00;99720.00;;;;5593297;25;2159;-41
2024/04/13 08:35:34;;;;;;;;;;;18.40;33.90;20.10;99717.00;;;;5593434;25;1980;-40
2024/04/13 08:38:07;;;;;;;;;;;18.40;34.40;20.10;99709.00;;;;5588327;25;2017;-41
2024/04/13 08:40:39;;;;;;;;;;;18.40;35.10;20.10;99712.00;;;;5553767;25;1479;-41
2024/04/13 08:43:09;;;;;;;;;;;18.40;35.30;20.10;99712.00;;;;5588748;25;1987;-40
2024/04/13 08:45:37;;;;;;;;;;;18.30;34.70;20.10;99713.00;;;;5588301;25;2166;-41
2024/04/13 08:48:07;;;;;;;;;;;18.40;34.60;20.00;99715.00;;;;5576254;25;2305;-41
2024/04/13 08:50:37;;;;;;;;;;;18.40;34.50;20.10;99709.00;;;;5594048;25;2077;-41
2024/04/13 08:53:07;;;;;;;;;;;18.40;34.30;20.00;99711.00;;;;5577784;25;2292;-43
2024/04/13 08:55:37;;;;;;;;;;;18.40;34.20;20.10;99694.00;;;;5585488;25;2135;-39
2024/04/13 08:58:04;;;;;;;;;;;18.40;34.10;20.10;99701.00;;;;5590176;25;2306;-39
2024/04/13 09:00:35;;;;;;;;;;;18.50;34.00;20.10;99696.00;;;;5581283;25;2227;-40
2024/04/13 09:03:02;;;;;;;;;;;18.50;34.60;20.20;99693.00;;;;5584473;25;2268;-41
2024/04/13 09:05:32;;;;;;;;;;;18.50;34.00;20.20;99707.00;;;;5582594;25;2081;-40
2024/04/13 09:08:00;;;;;;;;;;;18.50;35.00;20.20;99695.00;;;;5577722;25;2311;-41
2024/04/13 09:10:33;;;;;;;;;;;18.50;35.10;20.20;99691.00;;;;5590589;25;2192;-40
2024/04/13 09:13:00;;;;;;;;;;;18.40;35.50;20.10;99697.00;;;;5587069;25;2310;-40
2024/04/13 09:15:31;;;;;;;;;;;18.40;35.90;20.10;99693.00;;;;5583968;25;2200;-39
2024/04/13 09:17:59;;;;;;;;;;;18.30;36.20;20.10;99688.00;;;;5579526;25;3289;-38
2024/04/13 09:20:29;;;;;;;;;;;18.30;36.30;20.10;99698.00;;;;5582016;25;2376;-40
2024/04/13 09:22:56;;;;;;;;;;;18.30;35.30;20.00;99675.00;;;;5585253;25;2214;-39
2024/04/13 09:25:26;;;;;;;;;;;18.40;35.20;20.10;99673.00;;;;5583244;25;2283;-40
2024/04/13 09:28:00;;;;;;;;;;;18.40;35.00;20.10;99681.00;;;;5592347;25;2358;-39
2024/04/13 09:30:30;;;;;;;;;;;18.40;34.80;20.20;99671.00;;;;5596613;25;2309;-39
2024/04/13 09:33:02;;;;;;;;;;;18.40;34.70;20.20;99671.00;;;;5593432;25;2215;-40
2024/04/13 09:35:33;;;;;;;;;;;18.40;34.60;20.20;99674.00;;;;5591231;25;2355;-40
2024/04/13 09:38:01;;;;;;;;;;;18.50;34.50;20.20;99672.00;;;;5595800;25;2318;-40
2024/04/13 09:40:31;;;;;;;;;;;18.50;34.30;20.20;99667.00;;;;5595351;25;1807;-38
2024/04/13 09:43:02;;;;;;;;;;;18.50;34.90;20.20;99666.00;;;;5588897;25;2174;-38
2024/04/13 09:45:32;;;;;;;;;;;18.50;35.10;20.30;99660.00;;;;5589697;25;2366;-40
2024/04/13 09:47:59;;;;;;;;;;;18.50;35.40;20.20;99652.00;;;;5592930;25;2378;-40
2024/04/13 09:50:31;;;;;;;;;;;18.50;35.00;20.20;99648.00;;;;5597486;25;2319;-38
2024/04/13 09:53:01;;;;;;;;;;;18.40;34.80;20.20;99645.00;;;;5591515;25;2253;-39
2024/04/13 09:55:31;;;;;;;;;;;18.50;34.70;20.20;99639.00;;;;5591681;25;2413;-38
2024/04/13 09:58:01;;;;;;;;;;;18.50;34.60;20.30;99635.00;;;;5586237;25;2177;-41
2024/04/13 10:00:31;;;;;;;;;;;18.50;34.50;20.30;99632.00;;;;5596068;25;2000;-41
2024/04/13 10:02:59;;;;;;;;;;;18.50;34.40;20.30;99622.00;;;;5596237;25;1958;-39
2024/04/13 10:05:30;;;;;;;;;;;18.50;34.30;20.30;99621.00;;;;5587410;25;2384;-42
2024/04/13 10:07:57;;;;;;;;;;;18.50;34.20;20.30;99622.00;;;;5585978;25;2350;-41
2024/04/13 10:10:27;;;;;;;;;;;18.50;34.50;20.30;99601.00;;;;5595835;25;2304;-38
2024/04/13 10:12:56;;;;;;;;;;;18.60;35.10;20.30;99623.00;;;;5590746;25;2190;-43
2024/04/13 10:15:33;;;;;;;;;;;18.60;35.20;20.30;99611.00;;;;5588959;25;2204;-39
2024/04/13 10:18:02;;;;;;;;;;;18.50;34.90;20.30;99620.00;;;;5593476;25;2315;-41
2024/04/13 10:20:32;;;;;;;;;;;18.50;34.70;20.30;99610.00;;;;5591089;25;2193;-40
2024/04/13 10:22:59;;;;;;;;;;;18.50;34.60;20.30;99613.00;;;;5595074;25;2380;-38
2024/04/13 10:25:29;;;;;;;;;;;18.60;34.60;20.40;99615.00;;;;5589905;25;1984;-40
2024/04/13 10:28:06;;;;;;;;;;;18.60;34.40;20.40;99621.00;;;;5592614;25;2188;-40
2024/04/13 10:30:52;;;;;;;;;;;18.60;34.40;20.40;99606.00;;;;5596446;25;2194;-40
2024/04/13 10:33:20;;;;;;;;;;;18.60;34.20;20.40;99608.00;;;;5589237;25;3108;-39
2024/04/13 10:36:00;;;;;;;;;;;18.60;34.20;20.40;99592.00;;;;5595188;25;2650;-40
2024/04/13 10:38:28;;;;;;;;;;;18.60;34.40;20.40;99597.00;;;;5580686;25;2286;-38
2024/04/13 10:40:58;;;;;;;;;;;18.60;34.80;20.40;99594.00;;;;5586800;25;1987;-39
2024/04/13 10:43:25;;;;;;;;;;;18.60;34.90;20.40;99591.00;;;;5592238;25;2346;-40
2024/04/13 10:45:59;;;;;;;;;;;18.60;34.90;20.40;99586.00;;;;5595744;25;2164;-40
2024/04/13 10:48:28;;;;;;;;;;;18.60;34.70;20.40;99581.00;;;;5594594;25;2304;-40
2024/04/13 10:50:58;;;;;;;;;;;18.60;34.60;20.40;99585.00;;;;5592316;25;1983;-40
2024/04/13 10:53:27;;;;;;;;;;;18.60;34.40;20.40;99595.00;;;;5595270;25;1561;-40
2024/04/13 10:55:59;;;;;;;;;;;18.60;34.30;20.40;99590.00;;;;5597332;25;2053;-39
2024/04/13 10:58:27;;;;;;;;;;;18.60;34.20;20.40;99586.00;;;;5591299;25;2174;-40
2024/04/13 11:01:00;;;;;;;;;;;18.60;34.20;20.50;99579.00;;;;5591865;25;2324;-40
2024/04/13 11:03:29;;;;;;;;;;;18.60;34.00;20.40;99582.00;;;;5593499;25;2369;-39
2024/04/13 11:06:00;;;;;;;;;;;18.70;34.40;20.50;99598.00;;;;5588839;25;2407;-42
2024/04/13 11:08:28;;;;;;;;;;;18.70;34.60;20.50;99581.00;;;;5582017;25;2275;-41
2024/04/13 11:10:57;;;;;;;;;;;18.70;34.80;20.50;99575.00;;;;5589653;25;2177;-39
2024/04/13 11:13:25;;;;;;;;;;;18.60;34.90;20.50;99572.00;;;;5596067;25;2097;-39
2024/04/13 11:15:55;;;;;;;;;;;18.60;35.30;20.50;99570.00;;;;5587297;25;2174;-40
2024/04/13 11:18:26;;;;;;;;;;;18.60;35.60;20.40;99566.00;;;;5587338;25;2256;-40
2024/04/13 11:21:01;;;;;;;;;;;18.60;35.80;20.40;99555.00;;;;5591132;25;2297;-38
2024/04/13 11:23:28;;;;;;;;;;;18.50;35.30;20.40;99550.00;;;;5587876;25;1956;-40
2024/04/13 11:25:58;;;;;;;;;;;18.60;35.20;20.40;99548.00;;;;5588169;25;1966;-40
2024/04/13 11:28:26;;;;;;;;;;;18.60;35.00;20.40;99536.00;;;;5591961;25;2312;-39
2024/04/13 11:30:56;;;;;;;;;;;18.60;34.80;20.40;99537.00;;;;5588758;25;2177;-39
2024/04/13 11:33:27;;;;;;;;;;;18.60;34.70;20.40;99542.00;;;;5584331;25;1978;-39
2024/04/13 11:35:59;;;;;;;;;;;18.60;34.60;20.50;99540.00;;;;5591744;25;2067;-40
2024/04/13 11:38:28;;;;;;;;;;;18.70;34.50;20.50;99537.00;;;;5584114;25;2228;-44
2024/04/13 11:40:57;;;;;;;;;;;18.60;34.30;20.50;99529.00;;;;5581262;25;2213;-38
2024/04/13 11:43:25;;;;;;;;;;;18.70;34.80;20.50;99533.00;;;;5588394;25;2101;-39
2024/04/13 11:45:55;;;;;;;;;;;18.70;35.00;20.50;99530.00;;;;5595509;25;2320;-41
2024/04/13 11:48:22;;;;;;;;;;;18.70;35.30;20.50;99525.00;;;;5591857;25;2243;-42
2024/04/13 11:50:55;;;;;;;;;;;18.60;35.10;20.50;99518.00;;;;5591759;25;2179;-40
2024/04/13 11:53:22;;;;;;;;;;;18.60;34.90;20.50;99524.00;;;;5587219;25;2174;-44
2024/04/13 11:55:52;;;;;;;;;;;18.60;34.70;20.50;99518.00;;;;5596288;25;2211;-38
2024/04/13 11:58:20;;;;;;;;;;;18.60;34.60;20.40;99519.00;;;;5586939;25;1468;-39
2024/04/13 12:00:50;;;;;;;;;;;18.70;34.50;20.50;99522.00;;;;5590109;25;2108;-40
2024/04/13 12:03:17;;;;;;;;;;;18.70;34.40;20.50;99515.00;;;;5592466;25;2245;-40
2024/04/13 12:05:47;;;;;;;;;;;18.70;34.30;20.50;99507.00;;;;5588814;25;1971;-39
2024/04/13 12:08:17;;;;;;;;;;;18.70;34.20;20.50;99502.00;;;;5582613;25;2159;-39
2024/04/13 12:10:47;;;;;;;;;;;18.70;34.60;20.60;99498.00;;;;5579736;25;2365;-39
2024/04/13 12:13:15;;;;;;;;;;;18.80;34.80;20.60;99497.00;;;;5587190;25;2099;-39
2024/04/13 12:15:44;;;;;;;;;;;18.80;35.00;20.60;99483.00;;;;5591503;25;1485;-40
2024/04/13 12:18:12;;;;;;;;;;;18.70;35.00;20.50;99491.00;;;;5592579;25;2358;-41
2024/04/13 12:20:42;;;;;;;;;;;18.70;34.70;20.50;99479.00;;;;5590280;25;2158;-39